Bookmark and Share
Track history (hours):
 

Kota Ria

Last reported at 2014-Apr-09 14:33 UTC. Time now 2014-Apr-16 07:42 UTC.
Position N 01°13' E 103°29'.

Length 146 m; draft 5.4 m.

Type: Cargo ship. MMSI: 565050000.

NotesDate/timePositionNaut miles runAvg speedWind from/ knotsBaromVisibWave heightAir tempDewpointWater temp
2014-Apr-09 14:33N 01°13' E 103°29'1211.6
2014-Apr-09 13:33N 01°13' E 103°40'7 6.8
2014-Apr-09 12:32N 01°17' E 103°46'0 0.0
2014-Apr-09 11:31N 01°17' E 103°46'0 0.0
2014-Apr-09 10:31N 01°17' E 103°46'0 0.0
2014-Apr-09 09:31N 01°17' E 103°46'0 0.0
2014-Apr-09 08:31N 01°17' E 103°46'0 0.0
2014-Apr-09 07:28N 01°17' E 103°46'0 0.0
2014-Apr-09 06:28N 01°17' E 103°46'0 0.0
2014-Apr-09 05:31N 01°17' E 103°46'0 0.0
2014-Apr-09 04:31N 01°17' E 103°46'0 0.0
2014-Apr-09 03:33N 01°17' E 103°46'0 0.0
2014-Apr-09 02:33N 01°17' E 103°46'0 0.1
2014-Apr-09 01:33N 01°17' E 103°46'0 0.1
2014-Apr-09 00:33N 01°17' E 103°46'0 0.0
2014-Apr-08 23:33N 01°17' E 103°46'0 0.0
2014-Apr-08 22:33N 01°17' E 103°46'0 0.0
2014-Apr-08 21:33N 01°17' E 103°46'0 0.0
2014-Apr-08 20:33N 01°17' E 103°46'0 0.0
2014-Apr-08 19:33N 01°17' E 103°46'0 0.0
2014-Apr-08 18:33N 01°17' E 103°46'1 0.7
2014-Apr-08 17:34N 01°17' E 103°45'2 2.4
2014-Apr-08 16:34N 01°15' E 103°47'2 1.8
2014-Apr-08 15:28N 01°15' E 103°49'0 0.1
2014-Apr-08 14:16N 01°15' E 103°48'0 0.0
2014-Apr-08 13:13N 01°15' E 103°48'0 0.0
2014-Apr-08 12:28N 01°15' E 103°48'0 0.1
2014-Apr-08 11:25N 01°15' E 103°49'0 0.1
2014-Apr-08 10:31N 01°15' E 103°48'0 0.1
2014-Apr-08 09:31N 01°15' E 103°49'0 0.1
2014-Apr-08 08:31N 01°15' E 103°49'0 0.0
2014-Apr-08 07:31N 01°15' E 103°49'0 0.0
2014-Apr-08 06:10N 01°15' E 103°49'0 0.0
2014-Apr-08 05:25N 01°15' E 103°49'0 0.1
2014-Apr-08 04:31N 01°15' E 103°49'0 0.1
2014-Apr-08 03:25N 01°15' E 103°49'0 0.0
2014-Apr-08 02:31N 01°15' E 103°49'0 0.0
2014-Apr-08 01:31N 01°15' E 103°49'0 0.0
2014-Apr-08 00:31N 01°15' E 103°49'0 0.0
2014-Apr-07 23:31N 01°15' E 103°49'0 0.0
2014-Apr-07 22:31N 01°15' E 103°49'0 0.0
2014-Apr-07 21:25N 01°15' E 103°49'0 0.0
2014-Apr-07 20:31N 01°15' E 103°49'0 0.0
2014-Apr-07 19:31N 01°15' E 103°49'0 0.0
2014-Apr-07 17:28N 01°15' E 103°49'0 0.1
2014-Apr-07 16:31N 01°15' E 103°48'0 0.0
2014-Apr-07 15:31N 01°15' E 103°48'0 0.0
2014-Apr-07 14:31N 01°15' E 103°48'0 0.1
2014-Apr-07 13:31N 01°15' E 103°49'0 0.0
2014-Apr-07 12:31N 01°15' E 103°49'0 0.1
2014-Apr-07 11:31N 01°15' E 103°48'0 0.0
2014-Apr-07 10:31N 01°15' E 103°48'0 0.0
2014-Apr-07 09:31N 01°15' E 103°48'0 0.1
2014-Apr-07 08:31N 01°15' E 103°49'0 0.0
2014-Apr-07 07:31N 01°15' E 103°49'0 0.0
2014-Apr-07 06:25N 01°15' E 103°49'0 0.0
2014-Apr-07 05:31N 01°15' E 103°49'0 0.0
2014-Apr-07 04:31N 01°15' E 103°49'0 0.1
2014-Apr-07 03:28N 01°15' E 103°49'0 0.0
2014-Apr-07 02:31N 01°15' E 103°49'0 0.0
2014-Apr-07 01:31N 01°15' E 103°49'0 0.0
2014-Apr-07 00:25N 01°15' E 103°49'0 0.0
2014-Apr-06 23:31N 01°15' E 103°49'4 4.2
2014-Apr-06 22:33N 01°15' E 103°45'1010.2
2014-Apr-06 21:33N 01°12' E 103°35'5 5.1
2014-Apr-06 20:33N 01°10' E 103°30'2 1.9
2014-Apr-06 19:33N 01°11' E 103°28'  

Dump ship's entire track history

sailing weather and tide predictions

Kota Ria — 9VJK4 — position and weather